Strona główna
METAR-TAF:

METAR-TAF

Lotnisko :

Woodvale, Anglia

Szerokość geograficzna: 53-34-54N, Długość geograficzna: 003-03-20W, wysokość: 11 m

Aktualna obserwacja pogody

Raport powstał 21 godziny i 13 minut temu, godzina 14:50 UTC
Wiatr 5 kt od zachodnio-północny zachód
Temperatura 8°C
Wilgotność 87%
Ciśnienie 1020 hPa
Widzialność 10 km lub więcej
Rozproszone chmury na wysokości 1600 ft

METAR: EGOW 261450Z 30005KT 9999 SCT016 08/06 Q1020 RMK WHT

czas: 12:03 (12:03 UTC)

Prognoza

Raport powstał 22 godziny i 20 minut temu, godzina 13:43 UTC
Prognoza ważna od 26 godzina 15 UTC do 26 godzina 18 UTC
Wiatr 7 kt od zachód
Widzialność 10 km lub więcej
Mało chmury na wysokości 2200 ft
Przejściowo
od 26 godzina 15 UTC do 26 godzina 18 UTC
Rozproszone chmury na wysokości 2200 ft

TAF: EGOW 261343Z 2615/2618 26007KT 9999 FEW022 TEMPO 2615/2618 SCT022

Obserwacja i prognoza pogody dla ponad 4000 lotnisk (raport METAR i TAF).

Dostępne stacje oznaczono żółtymi i czerwonymi punktami na mapie.

Najedź kursorem aby zobaczyć nazwę stacji.

Kliknij aby zobaczyć obserwacje i prognozy pogody.

Aby zmienić mapę: kliknij na zielony przycisk z czarnym krzyżykiem, aby powiększyć; na zielony przycisk z myślnikiem, aby pomniejszyć; na zielone strzałki, aby przejść do map sąsiednich.


METAR-TAF: